Hutchins, Vermont
Current Conditions -  °F | °C
As of 3:54 PM on Tuesday 21 Oct 2014 (Local Time) from KMVL Reporting Station
Light Rain Light Rain  
Wind Chill: 48°   Ceiling: 2000
Heat Index: 48°   Visibility: 3mi
Dew Point: 45°   Wind: 0mph
Humidity: 89%   Direction: NA
Pressure: 30.02"   Gusts: NA
Location:  44.8557°N, 72.6016°W
Report Text: KMVL 211954Z AUTO 00000KT 3SM -RA BR FEW006 BKN020 OVC027 09/07 A3002 RMK AO2 SLP171 P0004 T00890072
Loading
Personal Weather Stations






























Interactive Weather Map New forecast layout! Learn more

10-Day Weather Forecast

Advertisements
Track Severe Weather on mobile